Time;durP1;ratioP1;P1;durP2;ratioP2;P2;SDS_P1;SDS_P2;PMS_P1;PMS_P2;Temp;Humidity;BMP_temperature;BMP_pressure;BME280_temperature;BME280_humidity;BME280_pressure;Samples;Min_cycle;Max_cycle;Signal;HPM_P1;HPM_P2
2022/05/12 00:02:16;;;;;;;3.97;1.15;;;10.70;99.90;;;;;;5015846;28;20152;-82
2022/05/12 00:04:42;;;;;;;8.57;1.73;;;10.70;99.90;;;;;;5015453;28;20081;-82
2022/05/12 00:07:08;;;;;;;5.68;0.93;;;10.70;99.90;;;;;;5016729;28;20135;-83
2022/05/12 00:09:33;;;;;;;5.57;1.40;;;10.60;99.90;;;;;;5035355;28;20072;-82
2022/05/12 00:11:59;;;;;;;3.80;0.85;;;10.60;99.90;;;;;;5035478;28;20129;-81
2022/05/12 00:14:25;;;;;;;8.07;1.25;;;10.40;99.90;;;;;;5035600;28;20079;-82
2022/05/12 00:16:51;;;;;;;5.97;1.33;;;10.40;99.90;;;;;;5035150;28;20042;-82
2022/05/12 00:19:17;;;;;;;5.65;1.00;;;10.30;99.90;;;;;;5034271;28;20419;-83
2022/05/12 00:21:43;;;;;;;8.25;1.40;;;10.20;99.90;;;;;;5035515;28;20045;-84
2022/05/12 00:24:10;;;;;;;6.07;1.42;;;10.10;99.90;;;;;;5035421;28;20394;-83
2022/05/12 00:26:36;;;;;;;10.02;1.52;;;10.10;99.90;;;;;;5035234;28;20037;-82
2022/05/12 00:29:05;;;;;;;4.45;1.30;;;10.00;99.90;;;;;;5034273;28;20052;-83
2022/05/12 00:31:33;;;;;;;4.53;1.05;;;9.80;99.90;;;;;;5050397;28;20103;-81
2022/05/12 00:33:59;;;;;;;8.05;1.70;;;9.70;99.90;;;;;;5035175;28;20120;-82
2022/05/12 00:36:24;;;;;;;3.13;1.10;;;9.70;99.90;;;;;;5035403;28;20531;-82
2022/05/12 00:38:50;;;;;;;7.70;1.50;;;9.60;99.90;;;;;;5034576;28;20045;-82
2022/05/12 00:41:16;;;;;;;8.73;1.20;;;9.60;99.90;;;;;;5035120;28;20430;-82
2022/05/12 00:43:50;;;;;;;7.55;1.48;;;9.60;99.90;;;;;;5034888;28;20413;-82
2022/05/12 00:46:22;;;;;;;7.35;1.40;;;9.60;99.90;;;;;;5034908;28;20041;-82
2022/05/12 00:48:48;;;;;;;5.07;1.42;;;9.50;99.90;;;;;;5022099;28;20124;-81
2022/05/12 00:51:24;;;;;;;4.25;1.27;;;9.40;99.90;;;;;;5015146;28;20038;-82
2022/05/12 00:53:54;;;;;;;5.70;1.35;;;9.30;99.90;;;;;;5015515;28;20049;-82
2022/05/12 00:56:21;;;;;;;4.45;0.93;;;9.30;99.90;;;;;;5014155;28;20042;-83
2022/05/12 00:58:50;;;;;;;6.97;1.67;;;9.20;99.90;;;;;;5023706;28;20038;-83
2022/05/12 01:01:16;;;;;;;3.22;1.30;;;9.20;99.90;;;;;;5034319;28;20060;-82
2022/05/12 01:03:43;;;;;;;4.65;1.23;;;9.20;99.90;;;;;;5034942;28;20081;-82
2022/05/12 01:06:11;;;;;;;6.50;1.65;;;9.10;99.90;;;;;;5027540;28;20060;-83
2022/05/12 01:08:37;;;;;;;4.53;0.90;;;9.00;99.90;;;;;;5022340;28;20516;-82
2022/05/12 01:11:15;;;;;;;6.38;1.77;;;9.00;99.90;;;;;;5034584;28;20038;-81
2022/05/12 01:13:43;;;;;;;6.93;1.50;;;8.90;99.90;;;;;;5034373;28;20125;-82
2022/05/12 01:16:09;;;;;;;5.25;1.35;;;8.90;99.90;;;;;;5034495;28;20045;-83
2022/05/12 01:18:39;;;;;;;4.22;1.13;;;8.80;99.90;;;;;;5026847;28;20050;-82
2022/05/12 01:21:05;;;;;;;3.47;1.08;;;8.80;99.90;;;;;;5014532;28;20053;-82
2022/05/12 01:23:33;;;;;;;4.65;0.95;;;8.70;99.90;;;;;;5029891;28;20038;-82
2022/05/12 01:26:15;;;;;;;4.82;1.48;;;8.70;99.90;;;;;;5029742;28;20046;-82
2022/05/12 01:28:41;;;;;;;6.03;1.33;;;8.70;99.90;;;;;;5024022;28;20449;-83
2022/05/12 01:31:08;;;;;;;3.70;1.17;;;8.80;99.90;;;;;;5033941;28;20088;-82
2022/05/12 01:33:35;;;;;;;2.83;1.05;;;8.60;99.90;;;;;;5033033;28;20042;-82
2022/05/12 01:36:00;;;;;;;11.05;1.35;;;8.50;99.90;;;;;;5034280;28;20406;-82
2022/05/12 01:38:26;;;;;;;7.10;1.83;;;8.40;99.90;;;;;;5033619;28;20042;-82
2022/05/12 01:40:52;;;;;;;8.35;2.28;;;8.40;99.90;;;;;;5033219;28;20041;-82
2022/05/12 01:43:19;;;;;;;5.57;1.45;;;8.40;99.90;;;;;;5034291;28;20045;-82
2022/05/12 01:45:45;;;;;;;8.43;1.50;;;8.40;99.90;;;;;;5033894;28;20156;-83
2022/05/12 01:48:13;;;;;;;6.38;1.85;;;8.40;99.90;;;;;;5023494;28;20033;-81
2022/05/12 01:50:41;;;;;;;6.97;1.80;;;8.40;99.90;;;;;;5034043;28;20076;-82
2022/05/12 01:53:09;;;;;;;6.45;1.70;;;8.40;99.90;;;;;;5033836;28;20044;-82
2022/05/12 01:55:35;;;;;;;8.35;1.83;;;8.30;99.90;;;;;;5021891;28;20391;-81
2022/05/12 01:58:02;;;;;;;9.38;2.25;;;8.30;99.90;;;;;;5013099;28;20041;-83
2022/05/12 02:00:29;;;;;;;9.13;2.05;;;8.30;99.90;;;;;;5100605;22;20048;-76
2022/05/12 02:02:59;;;;;;;7.53;1.80;;;8.30;99.90;;;;;;5067126;28;20053;-78
2022/05/12 02:05:29;;;;;;;9.02;2.10;;;8.30;99.90;;;;;;5052390;28;20041;-78
2022/05/12 02:07:55;;;;;;;7.68;2.55;;;8.30;99.90;;;;;;5048317;28;20099;-76
2022/05/12 02:10:25;;;;;;;5.82;1.88;;;8.20;99.90;;;;;;5051470;28;20486;-76
2022/05/12 02:12:50;;;;;;;6.65;2.15;;;8.20;99.90;;;;;;5052549;28;20041;-76
2022/05/12 02:15:16;;;;;;;7.20;2.28;;;8.20;99.90;;;;;;5052353;28;20041;-76
2022/05/12 02:17:42;;;;;;;9.05;2.15;;;8.10;99.90;;;;;;5042708;28;20042;-77
2022/05/12 02:20:10;;;;;;;6.78;2.35;;;8.10;99.90;;;;;;5052600;28;20090;-76
2022/05/12 02:22:36;;;;;;;11.65;2.75;;;8.20;99.90;;;;;;5051816;28;20041;-76
2022/05/12 02:25:03;;;;;;;10.00;2.78;;;8.10;99.90;;;;;;5052406;28;20041;-76
2022/05/12 02:27:28;;;;;;;5.35;2.05;;;8.20;99.90;;;;;;5052133;28;20044;-76
2022/05/12 02:29:54;;;;;;;8.20;3.20;;;8.20;99.90;;;;;;5051874;28;20056;-76
2022/05/12 02:32:20;;;;;;;7.72;2.90;;;8.20;99.90;;;;;;5050869;28;20041;-76
2022/05/12 02:34:45;;;;;;;10.82;2.60;;;8.10;99.90;;;;;;5042163;28;20077;-76
2022/05/12 02:37:11;;;;;;;16.23;2.83;;;8.10;99.90;;;;;;5032161;28;20432;-76
2022/05/12 02:39:40;;;;;;;10.48;3.08;;;8.10;99.90;;;;;;5047649;28;20099;-76
2022/05/12 02:42:08;;;;;;;7.18;2.80;;;8.00;99.90;;;;;;5052328;28;20051;-76
2022/05/12 02:44:35;;;;;;;10.88;3.35;;;8.00;99.90;;;;;;5050878;28;20404;-76
2022/05/12 02:47:01;;;;;;;16.20;3.60;;;7.90;99.90;;;;;;5051802;28;20048;-76
2022/05/12 02:49:27;;;;;;;6.65;2.60;;;7.80;99.90;;;;;;5051665;28;20388;-76
2022/05/12 02:51:53;;;;;;;9.30;3.47;;;7.70;99.90;;;;;;5052085;28;20124;-76
2022/05/12 02:54:19;;;;;;;17.10;3.90;;;7.70;99.90;;;;;;5055696;28;20111;-76
2022/05/12 02:56:47;;;;;;;8.73;3.08;;;7.60;99.90;;;;;;5055836;28;20432;-76
2022/05/12 02:59:13;;;;;;;8.35;3.22;;;7.60;99.90;;;;;;5055297;28;20486;-76
2022/05/12 03:01:39;;;;;;;9.25;3.47;;;7.50;99.90;;;;;;5055848;28;20060;-76
2022/05/12 03:04:05;;;;;;;13.02;3.47;;;7.50;99.90;;;;;;5055839;28;20037;-76
2022/05/12 03:06:31;;;;;;;13.77;3.80;;;7.50;99.90;;;;;;5055980;28;20102;-76
2022/05/12 03:08:58;;;;;;;9.95;3.83;;;7.40;99.90;;;;;;5055611;28;20064;-76
2022/05/12 03:11:24;;;;;;;14.63;4.45;;;7.40;99.90;;;;;;5055552;28;20496;-76
2022/05/12 03:13:50;;;;;;;12.00;4.65;;;7.40;99.90;;;;;;5055731;28;20041;-76
2022/05/12 03:16:19;;;;;;;12.10;3.65;;;7.30;99.90;;;;;;5055290;28;20358;-76
2022/05/12 03:18:47;;;;;;;12.98;4.53;;;7.30;99.90;;;;;;5054920;28;20063;-76
2022/05/12 03:21:16;;;;;;;14.60;4.97;;;7.30;99.90;;;;;;5055627;28;20045;-76
2022/05/12 03:23:43;;;;;;;9.90;4.50;;;7.30;99.90;;;;;;5055588;28;20076;-76
2022/05/12 03:26:09;;;;;;;10.77;4.72;;;7.30;99.90;;;;;;5055086;28;20045;-76
2022/05/12 03:28:36;;;;;;;13.27;4.65;;;7.30;99.90;;;;;;5055180;28;20037;-77
2022/05/12 03:31:01;;;;;;;16.70;5.03;;;7.30;99.90;;;;;;5055397;28;20041;-76
2022/05/12 03:33:27;;;;;;;10.45;4.45;;;7.40;99.90;;;;;;5055511;28;20045;-76
2022/05/12 03:35:52;;;;;;;13.45;4.80;;;7.50;99.90;;;;;;5055205;28;20079;-76
2022/05/12 03:38:19;;;;;;;14.20;4.70;;;7.60;99.90;;;;;;5054762;28;20099;-77
2022/05/12 03:40:45;;;;;;;12.07;5.05;;;7.50;99.90;;;;;;5053854;28;20501;-76
2022/05/12 03:44:46;;;;;;;13.52;5.35;;;7.50;99.90;;;;;;5055152;28;20052;-76
2022/05/12 03:45:58;;;;;;;20.08;5.60;;;7.40;99.90;;;;;;5053675;28;20136;-77
2022/05/12 03:48:23;;;;;;;17.50;5.03;;;7.40;99.90;;;;;;5054595;28;20041;-76
2022/05/12 03:50:49;;;;;;;15.32;4.43;;;7.30;99.90;;;;;;5054955;28;20041;-77
2022/05/12 03:53:14;;;;;;;18.13;5.47;;;7.30;99.90;;;;;;5054982;28;20497;-76
2022/05/12 03:55:40;;;;;;;12.80;5.13;;;7.30;99.90;;;;;;5054523;28;20393;-77
2022/05/12 03:58:06;;;;;;;11.90;5.10;;;7.30;99.90;;;;;;5054524;28;20068;-77
2022/05/12 04:00:32;;;;;;;18.80;5.80;;;7.40;99.90;;;;;;5054661;28;20061;-77
2022/05/12 04:02:58;;;;;;;17.13;6.03;;;7.50;99.90;;;;;;5054647;28;20496;-77
2022/05/12 04:05:24;;;;;;;14.00;5.50;;;7.50;99.90;;;;;;5054546;28;20493;-78
2022/05/12 04:07:51;;;;;;;21.88;6.20;;;7.60;99.90;;;;;;5054417;28;20477;-77
2022/05/12 04:10:17;;;;;;;17.85;6.72;;;7.60;99.90;;;;;;5054628;28;20401;-78
2022/05/12 04:12:42;;;;;;;19.27;5.57;;;7.60;99.90;;;;;;5054682;28;20069;-77
2022/05/12 04:15:08;;;;;;;16.88;6.40;;;7.60;99.90;;;;;;5054540;28;20080;-77
2022/05/12 04:17:35;;;;;;;18.33;6.05;;;7.70;99.90;;;;;;5054016;28;20575;-77
2022/05/12 04:20:06;;;;;;;17.67;6.95;;;7.80;99.90;;;;;;5053547;28;20052;-77
2022/05/12 04:22:33;;;;;;;16.27;5.70;;;7.80;99.90;;;;;;5054679;28;20056;-77
2022/05/12 04:24:59;;;;;;;18.75;6.15;;;7.90;99.90;;;;;;5054142;28;20080;-77
2022/05/12 04:27:25;;;;;;;14.15;6.15;;;8.00;99.90;;;;;;5054001;28;20049;-77
2022/05/12 04:29:51;;;;;;;14.45;6.55;;;8.00;99.90;;;;;;5054306;28;20040;-77
2022/05/12 04:32:16;;;;;;;16.65;6.32;;;8.00;99.90;;;;;;5068091;28;20051;-77
2022/05/12 04:37:28;;;;;;;25.17;7.20;;;8.10;99.90;;;;;;5054008;28;20493;-77
2022/05/12 04:39:54;;;;;;;19.25;6.55;;;8.20;99.90;;;;;;5057696;28;20129;-78
2022/05/12 04:42:19;;;;;;;20.92;5.93;;;8.30;99.90;;;;;;5062207;28;20075;-77
2022/05/12 04:44:45;;;;;;;17.90;6.05;;;8.30;99.90;;;;;;5063648;28;20123;-77
2022/05/12 04:47:10;;;;;;;18.50;6.35;;;8.50;99.90;;;;;;5055979;28;20041;-77
2022/05/12 04:49:36;;;;;;;14.20;6.65;;;8.50;99.90;;;;;;5053806;28;20076;-77
2022/05/12 04:52:02;;;;;;;21.60;6.53;;;8.60;99.90;;;;;;5053984;28;20166;-77
2022/05/12 04:54:29;;;;;;;15.77;6.63;;;8.60;99.90;;;;;;5053450;28;20084;-77
2022/05/12 04:56:56;;;;;;;37.92;7.93;;;8.70;99.90;;;;;;5053818;28;20412;-77
2022/05/12 04:59:22;;;;;;;20.98;6.72;;;8.70;99.90;;;;;;5053631;28;20099;-78
2022/05/12 05:01:49;;;;;;;17.83;6.60;;;8.90;99.90;;;;;;5053696;28;20092;-78
2022/05/12 05:04:14;;;;;;;15.27;6.78;;;9.10;99.90;;;;;;5052865;28;20053;-77
2022/05/12 05:06:40;;;;;;;27.20;8.43;;;9.20;99.90;;;;;;5050444;28;20044;-78
2022/05/12 05:09:06;;;;;;;27.33;8.45;;;9.20;99.90;;;;;;5050520;28;20131;-77
2022/05/12 05:11:33;;;;;;;15.65;6.10;;;9.30;99.90;;;;;;5050779;28;20105;-77
2022/05/12 05:13:59;;;;;;;17.05;6.82;;;9.40;99.90;;;;;;5050440;28;20507;-77
2022/05/12 05:16:25;;;;;;;15.30;6.90;;;9.50;99.90;;;;;;5049406;28;20037;-77
2022/05/12 05:18:50;;;;;;;13.77;6.35;;;9.60;99.90;;;;;;5050075;28;20107;-78
2022/05/12 05:21:16;;;;;;;18.35;6.53;;;9.60;99.90;;;;;;5050380;28;20045;-77
2022/05/12 05:23:41;;;;;;;21.70;7.43;;;9.70;99.90;;;;;;5050276;28;20049;-77
2022/05/12 05:26:08;;;;;;;17.77;7.22;;;9.90;99.90;;;;;;5050349;28;20076;-78
2022/05/12 05:28:34;;;;;;;17.42;6.93;;;10.20;99.90;;;;;;5050262;28;20053;-78
2022/05/12 05:31:02;;;;;;;11.57;5.35;;;11.00;99.90;;;;;;5050367;28;20054;-78
2022/05/12 05:33:28;;;;;;;13.45;4.80;;;11.80;99.90;;;;;;5052460;28;20792;-78
2022/05/12 05:35:53;;;;;;;9.00;3.30;;;12.60;99.90;;;;;;5051937;28;20708;-78
2022/05/12 05:38:19;;;;;;;12.63;3.65;;;13.20;99.90;;;;;;5051830;28;20048;-78
2022/05/12 05:40:45;;;;;;;13.77;3.75;;;13.90;99.90;;;;;;5053128;28;20485;-78
2022/05/12 05:43:10;;;;;;;13.60;4.25;;;14.60;99.90;;;;;;5053298;28;20408;-77
2022/05/12 05:45:36;;;;;;;9.60;3.33;;;14.90;99.90;;;;;;5052860;28;20118;-78
2022/05/12 05:48:04;;;;;;;8.95;3.55;;;14.60;99.90;;;;;;5052657;28;20048;-78
2022/05/12 05:53:23;;;;;;;10.43;3.17;;;15.10;99.90;;;;;;5052966;28;20047;-76
2022/05/12 05:53:25;;;;;;;12.30;3.95;;;15.80;99.90;;;;;;5052735;28;20489;-77
2022/05/12 05:55:56;;;;;;;11.38;3.95;;;16.50;99.90;;;;;;5052719;28;20045;-77
2022/05/12 05:58:23;;;;;;;15.93;3.03;;;17.00;99.90;;;;;;5052752;28;20037;-77
2022/05/12 06:00:48;;;;;;;15.45;3.70;;;17.30;99.90;;;;;;5051196;28;20124;-78
2022/05/12 06:03:14;;;;;;;9.73;2.80;;;17.90;99.90;;;;;;5052671;28;20128;-77
2022/05/12 06:05:41;;;;;;;5.78;2.45;;;17.90;99.90;;;;;;5052515;28;20094;-77
2022/05/12 06:08:09;;;;;;;8.98;2.67;;;18.10;99.90;;;;;;5052661;28;20047;-77
2022/05/12 06:10:35;;;;;;;10.95;3.95;;;18.40;99.90;;;;;;5052610;28;20041;-77
2022/05/12 06:13:02;;;;;;;7.72;2.70;;;18.20;99.90;;;;;;5052390;28;20043;-77
2022/05/12 06:15:28;;;;;;;17.15;4.40;;;18.40;99.90;;;;;;5052257;28;20438;-77
2022/05/12 06:17:54;;;;;;;12.32;3.55;;;18.30;99.90;;;;;;5052424;28;20077;-77
2022/05/12 06:20:21;;;;;;;8.77;2.90;;;18.00;99.90;;;;;;5052186;28;20045;-77
2022/05/12 06:22:46;;;;;;;8.07;3.20;;;17.90;99.90;;;;;;5052658;28;20052;-77
2022/05/12 06:25:15;;;;;;;9.77;3.83;;;18.00;99.90;;;;;;5050286;28;20406;-77
2022/05/12 06:27:41;;;;;;;8.77;3.00;;;17.90;99.90;;;;;;5049141;28;20045;-78
2022/05/12 06:30:11;;;;;;;11.57;3.05;;;18.40;99.20;;;;;;5049130;28;20091;-78
2022/05/12 06:32:38;;;;;;;11.18;2.85;;;18.70;95.20;;;;;;5049557;28;20041;-77
2022/05/12 06:35:05;;;;;;;10.40;3.20;;;18.90;89.20;;;;;;5049386;28;20064;-77
2022/05/12 06:37:32;;;;;;;6.78;2.72;;;18.90;89.80;;;;;;5049412;28;20452;-77
2022/05/12 06:39:57;;;;;;;8.90;2.65;;;18.90;88.90;;;;;;5049107;28;20113;-77
2022/05/12 06:42:23;;;;;;;8.45;2.88;;;19.40;86.00;;;;;;5049041;28;20128;-77
2022/05/12 06:44:50;;;;;;;6.18;2.53;;;19.50;81.00;;;;;;5049037;28;20041;-78
2022/05/12 06:47:15;;;;;;;6.72;2.60;;;19.80;74.30;;;;;;5049175;28;20511;-77
2022/05/12 06:49:42;;;;;;;8.90;2.72;;;19.80;70.20;;;;;;5049178;28;20116;-78
2022/05/12 06:52:09;;;;;;;7.05;2.30;;;19.90;67.00;;;;;;5049007;28;20724;-77
2022/05/12 06:54:36;;;;;;;10.18;3.08;;;19.90;70.20;;;;;;5049108;28;20049;-77
2022/05/12 06:57:02;;;;;;;9.15;2.92;;;19.90;71.40;;;;;;5049082;28;20071;-77
2022/05/12 06:59:27;;;;;;;10.82;3.28;;;19.90;65.40;;;;;;5048741;28;20134;-77
2022/05/12 07:01:53;;;;;;;5.85;2.17;;;19.70;68.20;;;;;;5048910;28;20076;-77
2022/05/12 07:04:19;;;;;;;11.80;2.55;;;19.60;69.00;;;;;;5049048;28;20696;-77
2022/05/12 07:06:45;;;;;;;7.82;3.05;;;19.60;70.60;;;;;;5049012;28;20174;-77
2022/05/12 07:09:11;;;;;;;8.13;2.42;;;19.70;67.30;;;;;;5048677;28;20378;-77
2022/05/12 07:11:36;;;;;;;7.07;2.22;;;20.00;62.80;;;;;;5048823;28;20409;-77
2022/05/12 07:14:02;;;;;;;8.63;1.92;;;20.50;59.40;;;;;;5048631;28;20044;-77
2022/05/12 07:16:28;;;;;;;11.27;2.60;;;20.70;45.70;;;;;;5048895;28;20049;-77
2022/05/12 07:18:54;;;;;;;8.30;2.70;;;20.50;40.30;;;;;;5048845;28;20155;-77
2022/05/12 07:26:49;;;;;;;6.43;2.25;;;21.00;34.40;;;;;;5051955;28;20179;-77
2022/05/12 07:29:17;;;;;;;5.20;1.70;;;21.20;29.10;;;;;;5051248;28;20114;-78
2022/05/12 07:31:44;;;;;;;7.00;2.20;;;21.40;30.90;;;;;;5050341;28;20052;-78
2022/05/12 07:34:10;;;;;;;8.07;2.22;;;21.30;25.10;;;;;;5051913;28;20037;-77
2022/05/12 07:36:41;;;;;;;8.68;1.50;;;21.20;20.50;;;;;;5050486;28;20508;-77
2022/05/12 07:39:07;;;;;;;4.95;1.60;;;21.30;20.40;;;;;;5053355;28;20048;-77
2022/05/12 07:41:32;;;;;;;7.55;1.92;;;21.40;19.80;;;;;;5054239;28;20140;-77
2022/05/12 07:43:58;;;;;;;6.70;1.67;;;21.40;17.30;;;;;;5055410;28;20063;-77
2022/05/12 07:46:28;;;;;;;6.03;1.77;;;21.40;17.40;;;;;;5055055;28;20433;-78
2022/05/12 07:48:54;;;;;;;9.43;2.13;;;21.60;16.40;;;;;;5055224;28;20041;-77
2022/05/12 07:51:20;;;;;;;6.95;2.60;;;21.70;15.30;;;;;;5055146;28;20044;-77
2022/05/12 07:53:47;;;;;;;11.07;1.90;;;21.90;12.30;;;;;;5055336;28;20076;-78
2022/05/12 07:56:17;;;;;;;6.13;1.80;;;21.80;9.10;;;;;;5054916;28;20043;-77
2022/05/12 07:58:44;;;;;;;9.88;2.17;;;21.80;11.10;;;;;;5055113;28;20088;-78
2022/05/12 08:01:12;;;;;;;7.15;2.20;;;22.00;8.70;;;;;;5054427;28;20049;-77
2022/05/12 08:03:39;;;;;;;11.93;1.95;;;22.10;11.20;;;;;;5054765;28;20497;-77
2022/05/12 08:06:05;;;;;;;6.20;1.83;;;22.20;12.80;;;;;;5054859;28;20458;-78
2022/05/12 08:08:31;;;;;;;13.68;2.30;;;22.50;8.20;;;;;;5054889;28;20052;-77
2022/05/12 08:10:57;;;;;;;12.93;1.80;;;22.80;5.40;;;;;;5054808;28;20037;-78
2022/05/12 08:13:23;;;;;;;7.22;2.20;;;22.70;2.90;;;;;;5036694;28;20099;-77
2022/05/12 08:15:50;;;;;;;11.30;2.80;;;22.60;2.20;;;;;;5054560;28;20098;-77
2022/05/12 08:18:21;;;;;;;9.15;1.98;;;22.60;1.80;;;;;;5053413;28;20045;-77
2022/05/12 08:20:48;;;;;;;5.78;1.58;;;22.80;3.90;;;;;;5054398;28;20045;-78
2022/05/12 08:23:14;;;;;;;8.93;1.60;;;22.80;4.50;;;;;;5054926;28;20045;-78
2022/05/12 08:25:41;;;;;;;6.80;1.38;;;22.80;1.00;;;;;;5054714;28;20444;-78
2022/05/12 08:28:07;;;;;;;5.22;1.50;;;22.70;1.00;;;;;;5052072;28;20056;-77
2022/05/12 08:30:33;;;;;;;6.30;1.95;;;22.90;1.00;;;;;;5051450;28;20041;-77
2022/05/12 08:32:59;;;;;;;8.20;1.63;;;23.00;1.00;;;;;;5051318;28;20041;-77
2022/05/12 08:35:26;;;;;;;6.20;1.17;;;23.50;1.00;;;;;;5051200;28;20044;-77
2022/05/12 08:37:52;;;;;;;9.85;2.25;;;23.20;1.00;;;;;;5051263;28;20459;-78
2022/05/12 08:40:52;;;;;;;7.07;1.40;;;23.10;1.00;;;;;;5049625;28;20045;-77
2022/05/12 08:43:25;;;;;;;5.93;1.23;;;23.20;1.00;;;;;;5051710;28;20120;-77
2022/05/12 08:45:54;;;;;;;10.90;1.27;;;23.10;1.00;;;;;;5050805;28;20053;-77
2022/05/12 08:48:20;;;;;;;3.83;1.30;;;23.50;1.00;;;;;;5051863;28;20048;-77
2022/05/12 08:50:53;;;;;;;8.38;1.30;;;23.80;1.00;;;;;;5053723;28;20041;-77
2022/05/12 08:53:22;;;;;;;7.75;1.15;;;23.70;1.00;;;;;;5051765;28;20129;-77
2022/05/12 08:55:54;;;;;;;10.43;1.83;;;23.60;1.00;;;;;;5053747;28;20041;-77
2022/05/12 08:58:33;;;;;;;7.45;1.80;;;23.80;1.00;;;;;;5053823;28;20451;-76
2022/05/12 09:01:01;;;;;;;6.93;1.92;;;23.80;1.00;;;;;;5053593;28;20057;-76
2022/05/12 09:04:04;;;;;;;4.28;1.30;;;24.00;1.00;;;;;;5053548;28;20493;-76
2022/05/12 09:06:53;;;;;;;5.45;1.38;;;23.70;1.00;;;;;;5051552;28;20051;-76
2022/05/12 09:09:24;;;;;;;6.95;1.35;;;22.90;1.00;;;;;;5049758;28;20088;-76
2022/05/12 09:12:01;;;;;;;6.03;1.50;;;22.90;1.00;;;;;;5050325;28;20044;-77
2022/05/12 09:14:34;;;;;;;6.05;1.67;;;23.30;1.00;;;;;;5050448;28;20091;-77
2022/05/12 09:17:00;;;;;;;7.85;1.20;;;23.70;1.00;;;;;;5050357;28;20124;-77
2022/05/12 09:19:27;;;;;;;6.53;1.45;;;24.10;1.00;;;;;;5050461;28;20591;-76
2022/05/12 09:21:54;;;;;;;3.47;1.20;;;23.30;1.00;;;;;;5050514;28;20049;-76
2022/05/12 09:24:20;;;;;;;6.63;1.70;;;23.70;1.00;;;;;;5050154;28;20041;-76
2022/05/12 09:26:47;;;;;;;3.33;1.02;;;24.20;1.00;;;;;;5050193;28;20409;-76
2022/05/12 09:29:33;;;;;;;4.15;1.42;;;23.80;1.00;;;;;;5049913;28;20401;-76
2022/05/12 09:32:04;;;;;;;6.88;1.73;;;23.00;1.00;;;;;;5050082;28;20057;-76
2022/05/12 09:34:36;;;;;;;5.80;1.63;;;22.20;1.00;;;;;;5050192;28;20044;-76
2022/05/12 09:37:26;;;;;;;7.45;1.90;;;22.00;1.00;;;;;;5048911;28;20493;-77
2022/05/12 09:39:57;;;;;;;3.95;1.13;;;22.30;1.00;;;;;;5049800;28;20045;-75
2022/05/12 09:42:29;;;;;;;6.40;1.38;;;22.50;1.00;;;;;;5050447;28;20052;-77
2022/05/12 09:44:57;;;;;;;7.13;1.83;;;23.00;1.00;;;;;;5049650;28;20067;-76
2022/05/12 09:47:25;;;;;;;6.30;1.55;;;23.30;1.00;;;;;;5050714;28;20048;-76
2022/05/12 09:49:51;;;;;;;4.57;0.90;;;22.90;1.00;;;;;;5052873;28;20041;-76
2022/05/12 09:52:24;;;;;;;4.70;0.90;;;22.70;1.00;;;;;;5052676;28;20056;-76
2022/05/12 09:55:09;;;;;;;4.60;0.80;;;22.90;1.00;;;;;;5052939;28;20072;-76
2022/05/12 09:57:35;;;;;;;7.17;1.67;;;22.70;1.00;;;;;;5052518;28;20517;-76
2022/05/12 10:00:04;;;;;;;6.35;1.60;;;21.90;1.00;;;;;;5052295;28;20045;-76
2022/05/12 10:08:19;;;;;;;6.95;1.02;;;20.80;1.00;;;;;;5052778;28;20106;-76
2022/05/12 10:10:49;;;;;;;4.03;1.00;;;21.20;1.00;;;;;;5052517;28;20224;-76
2022/05/12 10:13:39;;;;;;;6.05;1.23;;;21.90;1.00;;;;;;5052526;28;20120;-76
2022/05/12 10:16:07;;;;;;;5.20;1.50;;;22.00;1.00;;;;;;5052653;28;20095;-76
2022/05/12 10:18:40;;;;;;;4.85;1.35;;;22.30;1.00;;;;;;5052604;28;20049;-76
2022/05/12 10:21:30;;;;;;;9.25;1.42;;;22.40;1.00;;;;;;5052578;28;20041;-76
2022/05/12 10:24:04;;;;;;;6.00;1.58;;;22.00;1.00;;;;;;5052664;28;20053;-76
2022/05/12 10:26:48;;;;;;;7.75;1.67;;;21.10;1.00;;;;;;5052362;28;20048;-76
2022/05/12 10:29:53;;;;;;;6.38;1.13;;;20.80;1.00;;;;;;5051053;28;20088;-76
2022/05/12 10:32:56;;;;;;;5.00;0.95;;;20.70;1.00;;;;;;5052551;28;20060;-76
2022/05/12 10:35:29;;;;;;;6.10;1.33;;;20.70;1.00;;;;;;5052260;28;20090;-76
2022/05/12 10:38:34;;;;;;;8.75;1.30;;;20.50;1.00;;;;;;5052472;28;20396;-76
2022/05/12 10:41:14;;;;;;;6.38;1.52;;;20.50;1.00;;;;;;5052204;28;20041;-76
2022/05/12 10:43:46;;;;;;;5.38;1.83;;;20.60;1.00;;;;;;5051339;28;20052;-77
2022/05/12 10:46:23;;;;;;;7.80;1.63;;;20.70;1.00;;;;;;5052210;28;20152;-76
2022/05/12 10:49:07;;;;;;;4.30;1.60;;;21.20;1.00;;;;;;5052003;28;20077;-76
2022/05/12 10:51:47;;;;;;;4.80;0.95;;;21.20;1.00;;;;;;5052237;28;20056;-76
2022/05/12 10:54:50;;;;;;;3.20;0.88;;;21.00;1.00;;;;;;5052121;28;20064;-76
2022/05/12 10:57:21;;;;;;;6.65;1.20;;;20.80;1.00;;;;;;5052200;28;20110;-76
2022/05/12 11:00:08;;;;;;;5.25;1.45;;;20.80;1.00;;;;;;5052047;28;20076;-76
2022/05/12 11:02:48;;;;;;;5.22;1.40;;;21.20;1.00;;;;;;5052177;28;20120;-76
2022/05/12 11:05:34;;;;;;;5.55;1.42;;;21.90;1.00;;;;;;5051947;28;20045;-76
2022/05/12 11:08:18;;;;;;;4.90;0.90;;;22.50;1.00;;;;;;5052182;28;20110;-76
2022/05/12 11:10:58;;;;;;;5.85;1.50;;;23.00;1.00;;;;;;5051825;28;20080;-76
2022/05/12 11:13:48;;;;;;;5.35;1.15;;;23.20;1.00;;;;;;5052338;28;20087;-76
2022/05/12 11:16:17;;;;;;;6.53;1.00;;;23.40;1.00;;;;;;5055886;28;20382;-76
2022/05/12 11:19:12;;;;;;;3.05;0.90;;;23.40;1.00;;;;;;5055825;28;20056;-76
2022/05/12 11:22:20;;;;;;;5.85;1.30;;;23.50;1.00;;;;;;5055775;28;20041;-76
2022/05/12 11:24:54;;;;;;;7.93;1.90;;;23.90;1.00;;;;;;5055793;28;20106;-76
2022/05/12 11:29:41;;;;;;;5.95;1.98;;;22.90;1.00;;;;;;5055700;28;20094;-76
2022/05/12 11:30:46;;;;;;;4.35;1.35;;;22.70;1.00;;;;;;5055241;28;20059;-76
2022/05/12 11:33:35;;;;;;;5.95;1.33;;;22.50;1.00;;;;;;5054170;28;20049;-76
2022/05/12 11:36:01;;;;;;;5.38;1.33;;;21.50;1.00;;;;;;5055580;28;20037;-76
2022/05/12 11:38:42;;;;;;;4.80;1.25;;;20.80;1.00;;;;;;5055323;28;20429;-76
2022/05/12 11:41:39;;;;;;;13.15;1.85;;;20.70;1.00;;;;;;5053880;28;20055;-76
2022/05/12 11:44:26;;;;;;;5.95;1.50;;;20.70;1.00;;;;;;5047264;28;20092;-76
2022/05/12 11:47:04;;;;;;;10.38;2.15;;;20.80;1.00;;;;;;5055058;28;20076;-76
2022/05/12 11:49:49;;;;;;;3.67;1.08;;;21.40;1.00;;;;;;5055334;28;20052;-76
2022/05/12 11:52:39;;;;;;;6.77;1.27;;;21.10;1.00;;;;;;5055555;28;20136;-76
2022/05/12 11:55:20;;;;;;;4.18;1.23;;;20.80;1.00;;;;;;5054995;28;20051;-76
2022/05/12 11:58:09;;;;;;;4.03;1.10;;;20.80;1.00;;;;;;5053975;28;20052;-76
2022/05/12 12:00:35;;;;;;;3.38;1.10;;;20.90;1.00;;;;;;5054709;28;20142;-76
2022/05/12 12:03:18;;;;;;;4.25;0.98;;;20.70;1.00;;;;;;5054795;28;20083;-76
2022/05/12 12:05:49;;;;;;;4.93;1.13;;;20.20;1.00;;;;;;5054750;28;20044;-76
2022/05/12 12:08:30;;;;;;;5.30;1.52;;;20.50;1.00;;;;;;5055014;28;20130;-76
2022/05/12 12:11:20;;;;;;;7.88;1.05;;;22.00;1.00;;;;;;5054669;28;20128;-76
2022/05/12 12:13:48;;;;;;;4.50;1.00;;;22.90;1.00;;;;;;5054668;28;20099;-77
2022/05/12 12:16:21;;;;;;;5.75;1.00;;;23.50;1.00;;;;;;5054441;28;20056;-76
2022/05/12 12:18:52;;;;;;;4.07;0.90;;;23.50;1.00;;;;;;5054827;28;20083;-76
2022/05/12 12:21:45;;;;;;;4.50;0.80;;;22.60;1.00;;;;;;5054519;28;20386;-76
2022/05/12 12:24:20;;;;;;;3.50;0.82;;;21.60;1.00;;;;;;5044148;28;20053;-76
2022/05/12 12:26:50;;;;;;;3.20;0.80;;;21.10;1.00;;;;;;5054341;28;20064;-76
2022/05/12 12:29:21;;;;;;;5.55;1.10;;;21.80;1.00;;;;;;5054490;28;20045;-76
2022/05/12 12:31:50;;;;;;;5.40;1.10;;;21.60;1.00;;;;;;5054485;28;20132;-76
2022/05/12 12:34:26;;;;;;;6.80;1.05;;;21.60;1.00;;;;;;5054326;28;20096;-77
2022/05/12 12:37:06;;;;;;;3.67;0.85;;;21.20;1.00;;;;;;5054576;28;20060;-77
2022/05/12 12:39:48;;;;;;;27.08;3.42;;;21.30;1.00;;;;;;5054472;28;20049;-77
2022/05/12 12:42:21;;;;;;;5.80;1.08;;;21.90;1.00;;;;;;5054218;28;20516;-77
2022/05/12 12:44:52;;;;;;;8.75;1.20;;;21.80;1.00;;;;;;5053994;28;20045;-76
2022/05/12 12:47:31;;;;;;;8.10;1.33;;;22.60;1.00;;;;;;5052990;28;20041;-77
2022/05/12 12:50:09;;;;;;;8.02;0.90;;;23.00;1.00;;;;;;5054202;28;20072;-77
2022/05/12 12:52:44;;;;;;;4.13;1.05;;;24.10;1.00;;;;;;5053981;28;20512;-77
2022/05/12 12:58:04;;;;;;;4.75;0.90;;;23.00;1.00;;;;;;5053953;28;20075;-77
2022/05/12 13:00:33;;;;;;;1.55;0.70;;;22.70;1.00;;;;;;5053643;28;20094;-77
2022/05/12 13:03:20;;;;;;;4.57;0.63;;;22.40;1.00;;;;;;5053951;28;20048;-77
2022/05/12 13:05:48;;;;;;;5.63;0.93;;;22.40;1.00;;;;;;5053789;28;20471;-77
2022/05/12 13:08:27;;;;;;;3.97;0.90;;;22.60;1.00;;;;;;5053542;28;20048;-77
2022/05/12 13:11:00;;;;;;;4.45;1.45;;;22.90;1.00;;;;;;5053764;28;20049;-77
2022/05/12 13:13:27;;;;;;;5.50;0.98;;;23.40;1.00;;;;;;5053707;28;20044;-77
2022/05/12 13:15:59;;;;;;;5.95;1.27;;;24.50;1.00;;;;;;5052411;28;20037;-77
2022/05/12 13:18:29;;;;;;;3.50;0.95;;;25.40;1.00;;;;;;5052287;28;20045;-77
2022/05/12 13:20:56;;;;;;;4.60;0.98;;;26.30;1.00;;;;;;5053567;28;20489;-76
2022/05/12 13:23:25;;;;;;;6.10;1.52;;;25.90;1.00;;;;;;5053263;28;20043;-76
2022/05/12 13:25:52;;;;;;;4.47;1.05;;;25.50;1.00;;;;;;5053409;28;20045;-76